SXCXV DNMM-DNKN
Flight info
| Callsign | SXCXV |
|---|---|
| Flight time | 1h 13m |
| Altitude | 39000 |
| Route | IBA1Q IBA UR778 BOVKU DCT KIBTA KIBTA1R |
| Aircraft | CL60/M-SBDE1E2E3FGHIJ1J4J5J7M3RWXYZ/LB1V1D1 |
Departure
| Time | 2026-05-09 12:45 |
|---|---|
| Airport | Murtala Muhammed International Airport (DNMM) |
Arrival
| Time | 2026-05-09 13:59 |
|---|---|
| Airport | Mallam Aminu Kano International Airport (DNKN) |
| Time | Latitude | Longitude | Altitude | Speed | Heading |
|---|---|---|---|---|---|
| 2026-05-09 12:16 | 6.59290 | 3.33080 | 136 ft | 0 kts | 270° |
| 2026-05-09 12:42 | 6.59291 | 3.33064 | 136 ft | 5 kts | 271° |
| 2026-05-09 12:43 | 6.59291 | 3.33047 | 135 ft | 0 kts | 272° |
| 2026-05-09 12:43 | 6.59299 | 3.33038 | 135 ft | 5 kts | 337° |
| 2026-05-09 12:43 | 6.59363 | 3.33037 | 135 ft | 11 kts | 358° |
| 2026-05-09 12:43 | 6.59458 | 3.33032 | 136 ft | 14 kts | 357° |
| 2026-05-09 12:44 | 6.59558 | 3.33032 | 138 ft | 10 kts | 3° |
| 2026-05-09 12:44 | 6.59625 | 3.33025 | 140 ft | 8 kts | 6° |
| 2026-05-09 12:44 | 6.59662 | 3.32988 | 141 ft | 9 kts | 266° |
| 2026-05-09 12:44 | 6.59662 | 3.32911 | 142 ft | 12 kts | 278° |
| 2026-05-09 12:45 | 6.59583 | 3.32885 | 141 ft | 30 kts | 179° |
| 2026-05-09 12:45 | 6.59021 | 3.32893 | 128 ft | 129 kts | 179° |
| 2026-05-09 12:45 | 6.57887 | 3.32874 | 359 ft | 183 kts | 180° |
| 2026-05-09 12:45 | 6.56577 | 3.32892 | 1256 ft | 183 kts | 181° |
| 2026-05-09 12:46 | 6.55405 | 3.32905 | 1962 ft | 169 kts | 180° |
| 2026-05-09 12:46 | 6.54116 | 3.32737 | 2437 ft | 208 kts | 204° |
| 2026-05-09 12:46 | 6.53072 | 3.31641 | 3183 ft | 233 kts | 248° |
| 2026-05-09 12:46 | 6.52697 | 3.30001 | 4185 ft | 253 kts | 261° |
| 2026-05-09 12:47 | 6.52415 | 3.28256 | 5438 ft | 262 kts | 263° |
| 2026-05-09 12:47 | 6.52432 | 3.26413 | 6574 ft | 273 kts | 284° |
| 2026-05-09 12:47 | 6.53203 | 3.24626 | 7454 ft | 289 kts | 311° |
| 2026-05-09 12:47 | 6.54739 | 3.23354 | 8547 ft | 288 kts | 342° |
| 2026-05-09 12:48 | 6.56651 | 3.22950 | 9717 ft | 282 kts | 5° |
| 2026-05-09 12:48 | 6.58620 | 3.22939 | 10864 ft | 288 kts | 6° |
| 2026-05-09 12:48 | 6.60640 | 3.22927 | 11942 ft | 296 kts | 5° |
| 2026-05-09 12:48 | 6.62728 | 3.22910 | 12894 ft | 308 kts | 4° |
| 2026-05-09 12:49 | 6.65031 | 3.22922 | 13139 ft | 342 kts | 8° |
| 2026-05-09 12:49 | 6.67376 | 3.23520 | 13749 ft | 351 kts | 27° |
| 2026-05-09 12:49 | 6.69377 | 3.24793 | 15040 ft | 338 kts | 46° |
| 2026-05-09 12:49 | 6.70731 | 3.26656 | 16252 ft | 329 kts | 69° |
| 2026-05-09 12:50 | 6.71140 | 3.28918 | 16811 ft | 344 kts | 89° |
| 2026-05-09 12:50 | 6.71183 | 3.31422 | 17099 ft | 365 kts | 82° |
| 2026-05-09 12:50 | 6.72021 | 3.33841 | 17710 ft | 374 kts | 59° |
| 2026-05-09 12:50 | 6.73725 | 3.35794 | 18786 ft | 370 kts | 46° |
| 2026-05-09 12:51 | 6.75523 | 3.37529 | 20196 ft | 353 kts | 49° |
| 2026-05-09 12:51 | 6.77255 | 3.39229 | 21287 ft | 345 kts | 48° |
| 2026-05-09 12:51 | 6.78953 | 3.40962 | 21685 ft | 353 kts | 51° |
| 2026-05-09 12:51 | 6.80704 | 3.42759 | 22118 ft | 362 kts | 49° |
| 2026-05-09 12:52 | 6.81584 | 3.43652 | 22408 ft | 364 kts | 49° |
| 2026-05-09 12:52 | 6.82359 | 3.44426 | 22685 ft | 365 kts | 46° |
| 2026-05-09 12:52 | 6.84186 | 3.46198 | 23411 ft | 367 kts | 46° |
| 2026-05-09 12:53 | 6.86032 | 3.47996 | 24039 ft | 371 kts | 46° |
| 2026-05-09 12:53 | 6.87908 | 3.49830 | 24645 ft | 374 kts | 46° |
| 2026-05-09 12:53 | 6.89773 | 3.51655 | 25255 ft | 377 kts | 46° |
| 2026-05-09 12:53 | 6.91667 | 3.53513 | 25839 ft | 380 kts | 46° |
| 2026-05-09 12:54 | 6.93552 | 3.55364 | 26375 ft | 383 kts | 46° |
| 2026-05-09 12:54 | 6.95503 | 3.57282 | 26643 ft | 395 kts | 46° |
| 2026-05-09 12:54 | 6.97507 | 3.59258 | 26674 ft | 411 kts | 46° |
| 2026-05-09 12:54 | 6.99582 | 3.61303 | 26860 ft | 422 kts | 46° |
| 2026-05-09 12:55 | 7.01701 | 3.63394 | 27163 ft | 428 kts | 46° |
| 2026-05-09 12:55 | 7.03842 | 3.65508 | 27555 ft | 432 kts | 46° |
| 2026-05-09 12:55 | 7.06032 | 3.67671 | 28015 ft | 435 kts | 46° |
| 2026-05-09 12:55 | 7.08203 | 3.69815 | 28445 ft | 438 kts | 46° |
| 2026-05-09 12:56 | 7.10393 | 3.71979 | 28882 ft | 440 kts | 46° |
| 2026-05-09 12:56 | 7.12425 | 3.73990 | 29255 ft | 442 kts | 46° |
| 2026-05-09 12:56 | 7.14640 | 3.76180 | 29687 ft | 443 kts | 46° |
| 2026-05-09 12:56 | 7.16856 | 3.78373 | 30064 ft | 445 kts | 45° |
| 2026-05-09 12:57 | 7.19080 | 3.80575 | 30338 ft | 449 kts | 45° |
| 2026-05-09 12:57 | 7.21310 | 3.82783 | 30648 ft | 451 kts | 45° |
| 2026-05-09 12:57 | 7.23597 | 3.85047 | 30955 ft | 453 kts | 45° |
| 2026-05-09 12:57 | 7.25848 | 3.87278 | 31361 ft | 452 kts | 45° |
| 2026-05-09 12:58 | 7.28080 | 3.89491 | 31815 ft | 449 kts | 45° |
| 2026-05-09 12:58 | 7.30312 | 3.91704 | 32262 ft | 447 kts | 45° |
| 2026-05-09 12:58 | 7.32532 | 3.93906 | 32674 ft | 446 kts | 45° |
| 2026-05-09 12:58 | 7.34769 | 3.96126 | 33064 ft | 445 kts | 45° |
| 2026-05-09 12:59 | 7.36953 | 3.98329 | 33425 ft | 445 kts | 47° |
| 2026-05-09 12:59 | 7.38832 | 4.00704 | 33761 ft | 445 kts | 56° |
| 2026-05-09 12:59 | 7.40634 | 4.03359 | 34076 ft | 446 kts | 53° |
| 2026-05-09 12:59 | 7.42629 | 4.05782 | 34413 ft | 446 kts | 49° |
| 2026-05-09 13:00 | 7.44694 | 4.08162 | 34701 ft | 447 kts | 49° |
| 2026-05-09 13:00 | 7.46743 | 4.10533 | 35039 ft | 447 kts | 49° |
| 2026-05-09 13:00 | 7.48791 | 4.12904 | 35336 ft | 447 kts | 50° |
| 2026-05-09 13:00 | 7.50835 | 4.15273 | 35614 ft | 448 kts | 49° |
| 2026-05-09 13:01 | 7.52895 | 4.17661 | 35873 ft | 448 kts | 49° |
| 2026-05-09 13:01 | 7.54976 | 4.20075 | 36125 ft | 449 kts | 49° |
| 2026-05-09 13:01 | 7.57024 | 4.22451 | 36379 ft | 450 kts | 49° |
| 2026-05-09 13:01 | 7.59084 | 4.24843 | 36627 ft | 450 kts | 49° |
| 2026-05-09 13:02 | 7.61145 | 4.27237 | 36881 ft | 450 kts | 49° |
| 2026-05-09 13:02 | 7.63198 | 4.29622 | 37144 ft | 450 kts | 49° |
| 2026-05-09 13:02 | 7.65254 | 4.32011 | 37345 ft | 450 kts | 49° |
| 2026-05-09 13:02 | 7.67289 | 4.34377 | 37540 ft | 451 kts | 49° |
| 2026-05-09 13:03 | 7.69349 | 4.36772 | 37762 ft | 451 kts | 49° |
| 2026-05-09 13:03 | 7.71411 | 4.39170 | 37997 ft | 450 kts | 49° |
| 2026-05-09 13:03 | 7.73461 | 4.41555 | 38181 ft | 451 kts | 49° |
| 2026-05-09 13:03 | 7.75499 | 4.43928 | 38321 ft | 452 kts | 49° |
| 2026-05-09 13:04 | 7.77546 | 4.46312 | 38519 ft | 452 kts | 49° |
| 2026-05-09 13:04 | 7.79596 | 4.48700 | 38764 ft | 451 kts | 49° |
| 2026-05-09 13:04 | 7.81665 | 4.51110 | 38918 ft | 452 kts | 49° |
| 2026-05-09 13:05 | 7.85781 | 4.55907 | 38941 ft | 456 kts | 49° |
| 2026-05-09 13:05 | 7.89929 | 4.60744 | 38953 ft | 455 kts | 49° |
| 2026-05-09 13:06 | 7.94078 | 4.65584 | 38964 ft | 454 kts | 49° |
| 2026-05-09 13:06 | 7.98198 | 4.70392 | 38970 ft | 452 kts | 49° |
| 2026-05-09 13:07 | 8.02284 | 4.75161 | 38981 ft | 451 kts | 49° |
| 2026-05-09 13:07 | 8.06406 | 4.79974 | 38972 ft | 451 kts | 49° |
| 2026-05-09 13:08 | 8.10483 | 4.84737 | 38953 ft | 452 kts | 49° |
| 2026-05-09 13:08 | 8.14615 | 4.89565 | 38946 ft | 452 kts | 49° |
| 2026-05-09 13:09 | 8.18713 | 4.94357 | 38948 ft | 453 kts | 49° |
| 2026-05-09 13:09 | 8.22838 | 4.99178 | 38943 ft | 453 kts | 49° |
| 2026-05-09 13:10 | 8.26954 | 5.03990 | 38931 ft | 453 kts | 49° |
| 2026-05-09 13:10 | 8.31082 | 5.08818 | 38927 ft | 452 kts | 49° |
| 2026-05-09 13:11 | 8.35181 | 5.13616 | 38915 ft | 452 kts | 49° |
| 2026-05-09 13:11 | 8.39292 | 5.18428 | 38902 ft | 452 kts | 49° |
| 2026-05-09 13:12 | 8.43392 | 5.23227 | 38894 ft | 452 kts | 49° |
| 2026-05-09 13:12 | 8.47510 | 5.28050 | 38892 ft | 452 kts | 49° |
| 2026-05-09 13:13 | 8.51608 | 5.32851 | 38875 ft | 453 kts | 49° |
| 2026-05-09 13:13 | 8.55738 | 5.37691 | 38887 ft | 452 kts | 49° |
| 2026-05-09 13:14 | 8.59826 | 5.42484 | 38873 ft | 452 kts | 49° |
| 2026-05-09 13:16 | 8.76266 | 5.61779 | 38848 ft | 452 kts | 49° |
| 2026-05-09 13:16 | 8.80367 | 5.66596 | 38835 ft | 452 kts | 49° |
| 2026-05-09 13:17 | 8.84476 | 5.71425 | 38839 ft | 452 kts | 49° |
| 2026-05-09 13:17 | 8.88557 | 5.76223 | 38838 ft | 452 kts | 49° |
| 2026-05-09 13:18 | 8.92636 | 5.81020 | 38836 ft | 451 kts | 49° |
| 2026-05-09 13:18 | 8.96746 | 5.85856 | 38839 ft | 451 kts | 49° |
| 2026-05-09 13:19 | 9.00845 | 5.90681 | 38840 ft | 452 kts | 49° |
| 2026-05-09 13:19 | 9.04918 | 5.95477 | 38840 ft | 452 kts | 49° |
| 2026-05-09 13:20 | 9.09018 | 6.00305 | 38839 ft | 452 kts | 49° |
| 2026-05-09 13:20 | 9.13427 | 6.04831 | 38835 ft | 451 kts | 42° |
| 2026-05-09 13:21 | 9.18001 | 6.09162 | 38838 ft | 451 kts | 43° |
| 2026-05-09 13:21 | 9.22588 | 6.13514 | 38837 ft | 451 kts | 43° |
| 2026-05-09 13:22 | 9.27141 | 6.17838 | 38836 ft | 450 kts | 43° |
| 2026-05-09 13:22 | 9.31715 | 6.22188 | 38840 ft | 450 kts | 43° |
| 2026-05-09 13:23 | 9.43129 | 6.33065 | 38846 ft | 450 kts | 43° |
| 2026-05-09 13:24 | 9.47664 | 6.37391 | 38851 ft | 450 kts | 43° |
| 2026-05-09 13:24 | 9.52225 | 6.41744 | 38854 ft | 450 kts | 43° |
| 2026-05-09 13:25 | 9.56789 | 6.46103 | 38858 ft | 450 kts | 43° |
| 2026-05-09 13:26 | 9.63613 | 6.52623 | 38868 ft | 450 kts | 43° |
| 2026-05-09 13:26 | 9.68162 | 6.56971 | 38878 ft | 450 kts | 43° |
| 2026-05-09 13:27 | 9.72559 | 6.61459 | 38886 ft | 450 kts | 46° |
| 2026-05-09 13:27 | 9.76827 | 6.66092 | 38896 ft | 450 kts | 46° |
| 2026-05-09 13:28 | 9.81097 | 6.70722 | 38895 ft | 450 kts | 46° |
| 2026-05-09 13:28 | 9.85391 | 6.75378 | 38893 ft | 450 kts | 46° |
| 2026-05-09 13:29 | 9.89677 | 6.80028 | 38889 ft | 451 kts | 46° |
| 2026-05-09 13:29 | 9.93934 | 6.84647 | 38878 ft | 451 kts | 46° |
| 2026-05-09 13:30 | 9.98298 | 6.89215 | 38881 ft | 449 kts | 41° |
| 2026-05-09 13:30 | 10.02964 | 6.93412 | 38884 ft | 448 kts | 41° |
| 2026-05-09 13:31 | 10.07625 | 6.97608 | 38896 ft | 448 kts | 41° |
| 2026-05-09 13:31 | 10.12295 | 7.01818 | 38906 ft | 450 kts | 41° |
| 2026-05-09 13:32 | 10.16961 | 7.06027 | 38916 ft | 450 kts | 41° |
| 2026-05-09 13:32 | 10.23996 | 7.12380 | 38927 ft | 450 kts | 41° |
| 2026-05-09 13:33 | 10.28670 | 7.16604 | 38935 ft | 450 kts | 41° |
| 2026-05-09 13:33 | 10.32891 | 7.21293 | 38939 ft | 451 kts | 54° |
| 2026-05-09 13:34 | 10.36314 | 7.26510 | 38949 ft | 452 kts | 55° |
| 2026-05-09 13:34 | 10.39841 | 7.31898 | 38947 ft | 452 kts | 55° |
| 2026-05-09 13:35 | 10.43327 | 7.37226 | 38945 ft | 452 kts | 55° |
| 2026-05-09 13:35 | 10.46808 | 7.42548 | 38946 ft | 452 kts | 55° |
| 2026-05-09 13:36 | 10.50277 | 7.47857 | 38718 ft | 449 kts | 55° |
| 2026-05-09 13:36 | 10.51996 | 7.50491 | 38227 ft | 443 kts | 55° |
| 2026-05-09 13:36 | 10.53705 | 7.53108 | 37423 ft | 443 kts | 55° |
| 2026-05-09 13:37 | 10.55384 | 7.55678 | 36515 ft | 445 kts | 55° |
| 2026-05-09 13:37 | 10.57104 | 7.58314 | 35521 ft | 447 kts | 55° |
| 2026-05-09 13:37 | 10.58820 | 7.60942 | 34471 ft | 450 kts | 55° |
| 2026-05-09 13:37 | 10.60561 | 7.63611 | 33376 ft | 453 kts | 55° |
| 2026-05-09 13:38 | 10.62300 | 7.66277 | 32292 ft | 455 kts | 56° |
| 2026-05-09 13:38 | 10.64034 | 7.68936 | 31717 ft | 445 kts | 56° |
| 2026-05-09 13:38 | 10.65743 | 7.71558 | 31605 ft | 444 kts | 56° |
| 2026-05-09 13:38 | 10.67467 | 7.74201 | 31484 ft | 450 kts | 56° |
| 2026-05-09 13:39 | 10.69188 | 7.76843 | 31359 ft | 455 kts | 56° |
| 2026-05-09 13:39 | 10.70934 | 7.79522 | 31241 ft | 457 kts | 56° |
| 2026-05-09 13:39 | 10.72697 | 7.82229 | 31117 ft | 457 kts | 56° |
| 2026-05-09 13:39 | 10.74467 | 7.84947 | 30787 ft | 462 kts | 56° |
| 2026-05-09 13:40 | 10.76231 | 7.87658 | 30200 ft | 462 kts | 56° |
| 2026-05-09 13:40 | 10.78006 | 7.90385 | 29620 ft | 456 kts | 56° |
| 2026-05-09 13:40 | 10.79728 | 7.93033 | 29053 ft | 450 kts | 56° |
| 2026-05-09 13:40 | 10.81448 | 7.95677 | 28474 ft | 444 kts | 56° |
| 2026-05-09 13:41 | 10.83134 | 7.98269 | 27893 ft | 440 kts | 56° |
| 2026-05-09 13:41 | 10.84810 | 8.00846 | 27311 ft | 435 kts | 56° |
| 2026-05-09 13:41 | 10.86457 | 8.03381 | 26746 ft | 431 kts | 56° |
| 2026-05-09 13:41 | 10.88123 | 8.05943 | 26179 ft | 427 kts | 56° |
| 2026-05-09 13:42 | 10.89920 | 8.08278 | 25630 ft | 422 kts | 45° |
| 2026-05-09 13:42 | 10.92237 | 8.10119 | 25087 ft | 420 kts | 31° |
| 2026-05-09 13:42 | 10.94898 | 8.11322 | 24523 ft | 420 kts | 21° |
| 2026-05-09 13:42 | 10.97681 | 8.12292 | 23952 ft | 417 kts | 20° |
| 2026-05-09 13:43 | 11.00419 | 8.13251 | 23396 ft | 415 kts | 20° |
| 2026-05-09 13:43 | 11.03156 | 8.14211 | 22851 ft | 412 kts | 20° |
| 2026-05-09 13:43 | 11.05848 | 8.15156 | 22306 ft | 409 kts | 20° |
| 2026-05-09 13:43 | 11.08546 | 8.16104 | 21770 ft | 405 kts | 20° |
| 2026-05-09 13:44 | 11.11196 | 8.17035 | 21220 ft | 400 kts | 21° |
| 2026-05-09 13:44 | 11.13815 | 8.17955 | 20691 ft | 395 kts | 21° |
| 2026-05-09 13:44 | 11.16386 | 8.18858 | 20168 ft | 390 kts | 21° |
| 2026-05-09 13:44 | 11.18951 | 8.19759 | 19646 ft | 384 kts | 21° |
| 2026-05-09 13:45 | 11.21480 | 8.20648 | 19134 ft | 379 kts | 21° |
| 2026-05-09 13:45 | 11.23697 | 8.21428 | 18686 ft | 374 kts | 21° |
| 2026-05-09 13:45 | 11.26121 | 8.22281 | 18190 ft | 369 kts | 22° |
| 2026-05-09 13:45 | 11.28560 | 8.23139 | 17698 ft | 363 kts | 22° |
| 2026-05-09 13:46 | 11.30919 | 8.23968 | 17220 ft | 358 kts | 22° |
| 2026-05-09 13:46 | 11.33002 | 8.24701 | 16802 ft | 353 kts | 22° |
| 2026-05-09 13:46 | 11.35320 | 8.25514 | 16330 ft | 348 kts | 22° |
| 2026-05-09 13:46 | 11.37608 | 8.26320 | 15861 ft | 342 kts | 22° |
| 2026-05-09 13:47 | 11.39833 | 8.27103 | 15407 ft | 336 kts | 22° |
| 2026-05-09 13:47 | 11.42035 | 8.27878 | 14963 ft | 330 kts | 22° |
| 2026-05-09 13:47 | 11.44181 | 8.28634 | 14526 ft | 324 kts | 22° |
| 2026-05-09 13:47 | 11.46311 | 8.29385 | 14096 ft | 318 kts | 22° |
| 2026-05-09 13:48 | 11.48410 | 8.30125 | 13672 ft | 313 kts | 22° |
| 2026-05-09 13:48 | 11.50423 | 8.30834 | 13267 ft | 307 kts | 22° |
| 2026-05-09 13:48 | 11.52453 | 8.31550 | 12840 ft | 303 kts | 22° |
| 2026-05-09 13:48 | 11.54447 | 8.32253 | 12438 ft | 298 kts | 22° |
| 2026-05-09 13:49 | 11.56378 | 8.32934 | 12049 ft | 293 kts | 22° |
| 2026-05-09 13:49 | 11.58314 | 8.33576 | 11664 ft | 290 kts | 17° |
| 2026-05-09 13:49 | 11.60295 | 8.33942 | 11292 ft | 288 kts | 13° |
| 2026-05-09 13:49 | 11.62281 | 8.34265 | 10918 ft | 284 kts | 13° |
| 2026-05-09 13:50 | 11.64210 | 8.34583 | 10543 ft | 281 kts | 13° |
| 2026-05-09 13:50 | 11.66155 | 8.34904 | 10162 ft | 278 kts | 13° |
| 2026-05-09 13:50 | 11.68064 | 8.35219 | 9789 ft | 275 kts | 13° |
| 2026-05-09 13:50 | 11.69942 | 8.35530 | 9428 ft | 273 kts | 13° |
| 2026-05-09 13:51 | 11.71810 | 8.35839 | 9061 ft | 270 kts | 13° |
| 2026-05-09 13:51 | 11.73674 | 8.36148 | 8697 ft | 267 kts | 12° |
| 2026-05-09 13:51 | 11.75488 | 8.36449 | 8346 ft | 265 kts | 13° |
| 2026-05-09 13:51 | 11.77303 | 8.36751 | 7995 ft | 262 kts | 12° |
| 2026-05-09 13:52 | 11.79114 | 8.37051 | 7645 ft | 259 kts | 13° |
| 2026-05-09 13:52 | 11.80880 | 8.37345 | 7305 ft | 257 kts | 13° |
| 2026-05-09 13:52 | 11.82649 | 8.37640 | 6963 ft | 255 kts | 12° |
| 2026-05-09 13:52 | 11.84415 | 8.37933 | 6621 ft | 252 kts | 13° |
| 2026-05-09 13:53 | 11.86139 | 8.38221 | 6291 ft | 250 kts | 13° |
| 2026-05-09 13:53 | 11.87863 | 8.38304 | 5958 ft | 252 kts | 355° |
| 2026-05-09 13:53 | 11.89522 | 8.37698 | 5621 ft | 255 kts | 335° |
| 2026-05-09 13:53 | 11.91089 | 8.36810 | 5264 ft | 255 kts | 335° |
| 2026-05-09 13:54 | 11.92635 | 8.35939 | 4930 ft | 253 kts | 335° |
| 2026-05-09 13:54 | 11.94172 | 8.35075 | 4598 ft | 251 kts | 335° |
| 2026-05-09 13:54 | 11.95721 | 8.34290 | 4260 ft | 245 kts | 347° |
| 2026-05-09 13:54 | 11.97371 | 8.34316 | 3892 ft | 233 kts | 25° |
| 2026-05-09 13:55 | 11.98548 | 8.35356 | 3522 ft | 227 kts | 62° |
| 2026-05-09 13:55 | 11.98926 | 8.36908 | 3267 ft | 222 kts | 86° |
| 2026-05-09 13:55 | 11.98992 | 8.38422 | 3225 ft | 207 kts | 83° |
| 2026-05-09 13:55 | 11.99105 | 8.39862 | 3210 ft | 199 kts | 80° |
| 2026-05-09 13:56 | 11.99333 | 8.41248 | 3445 ft | 200 kts | 79° |
| 2026-05-09 13:56 | 11.99667 | 8.42605 | 3577 ft | 191 kts | 68° |
| 2026-05-09 13:56 | 12.00291 | 8.43770 | 3305 ft | 184 kts | 57° |
| 2026-05-09 13:56 | 12.00958 | 8.44871 | 2977 ft | 179 kts | 57° |
| 2026-05-09 13:57 | 12.01597 | 8.45953 | 2605 ft | 176 kts | 59° |
| 2026-05-09 13:57 | 12.02157 | 8.46981 | 2381 ft | 156 kts | 59° |
| 2026-05-09 13:57 | 12.02625 | 8.47916 | 2190 ft | 136 kts | 59° |
| 2026-05-09 13:57 | 12.03098 | 8.48743 | 2017 ft | 143 kts | 58° |
| 2026-05-09 13:58 | 12.03587 | 8.49617 | 1841 ft | 135 kts | 60° |
| 2026-05-09 13:58 | 12.04020 | 8.50412 | 1671 ft | 119 kts | 60° |
| 2026-05-09 13:58 | 12.04403 | 8.51117 | 1583 ft | 104 kts | 59° |
| 2026-05-09 13:58 | 12.04678 | 8.51613 | 1562 ft | 55 kts | 61° |
| 2026-05-09 13:59 | 12.04855 | 8.51944 | 1555 ft | 50 kts | 59° |
| 2026-05-09 13:59 | 12.04990 | 8.52188 | 1549 ft | 21 kts | 65° |
| 2026-05-09 13:59 | 12.04954 | 8.52323 | 1549 ft | 22 kts | 145° |
| 2026-05-09 13:59 | 12.04829 | 8.52290 | 1552 ft | 22 kts | 234° |
| 2026-05-09 14:00 | 12.04763 | 8.52232 | 1554 ft | 0 kts | 198° |
| 2026-05-09 14:00 | 12.04744 | 8.52230 | 1554 ft | 5 kts | 174° |
| 2026-05-09 14:00 | 12.04725 | 8.52265 | 1555 ft | 6 kts | 55° |
| 2026-05-09 14:00 | 12.04738 | 8.52317 | 1555 ft | 9 kts | 133° |
| 2026-05-09 14:01 | 12.04710 | 8.52319 | 1556 ft | 3 kts | 250° |
| 2026-05-09 14:01 | 12.04707 | 8.52304 | 1556 ft | 0 kts | 242° |
| 2026-05-09 14:01 | 12.04706 | 8.52302 | 1556 ft | 0 kts | 242° |